createdAt,value
2022-10-05T00:02:01.689Z,70.12
2022-10-05T00:05:06.715Z,70.59
2022-10-05T00:08:12.205Z,68.29
2022-10-05T00:11:14.448Z,70.28
2022-10-05T00:14:30.886Z,70.18
2022-10-05T00:17:32.664Z,70.82
2022-10-05T00:20:34.449Z,68.65
2022-10-05T00:23:36.274Z,71.66
2022-10-05T00:26:38.135Z,73.90
2022-10-05T00:29:39.957Z,71.41
2022-10-05T00:32:42.348Z,71.22
2022-10-05T00:35:44.158Z,71.36
2022-10-05T00:38:46.159Z,73.41
2022-10-05T00:41:54.056Z,71.76
2022-10-05T00:45:25.671Z,67.22
2022-10-05T00:48:33.026Z,68.50
2022-10-05T00:51:36.379Z,70.68
2022-10-05T00:54:41.234Z,71.15
2022-10-05T00:57:42.962Z,70.70
2022-10-05T01:01:20.598Z,68.60
2022-10-05T01:04:27.163Z,70.84
2022-10-05T01:07:34.969Z,69.21
2022-10-05T01:10:47.811Z,64.68
2022-10-05T01:13:49.617Z,65.55
2022-10-05T01:17:10.372Z,66.88
2022-10-05T01:20:18.451Z,71.68
2022-10-05T01:23:23.299Z,72.40
2022-10-05T01:26:44.241Z,70.30
2022-10-05T01:30:18.935Z,70.17
2022-10-05T01:33:50.091Z,70.27
2022-10-05T01:36:57.553Z,67.06
2022-10-05T01:40:06.594Z,66.71
2022-10-05T01:43:08.337Z,69.27
2022-10-05T01:46:10.358Z,67.01
2022-10-05T01:49:15.163Z,66.02
2022-10-05T01:52:19.240Z,66.61
2022-10-05T01:55:29.157Z,67.58
2022-10-05T01:58:33.737Z,70.91
2022-10-05T02:01:39.203Z,72.07
2022-10-05T02:05:01.328Z,70.37
2022-10-05T02:08:08.535Z,69.76
2022-10-05T02:11:13.534Z,66.11
2022-10-05T02:14:16.725Z,66.99
2022-10-05T02:17:20.117Z,69.31
2022-10-05T02:20:25.592Z,72.91
2022-10-05T02:23:29.162Z,73.51
2022-10-05T02:26:31.064Z,72.64
2022-10-05T02:29:33.165Z,69.84
2022-10-05T02:32:40.355Z,67.76
2022-10-05T02:35:42.181Z,66.97
2022-10-05T02:38:57.086Z,65.72
2022-10-05T02:42:02.240Z,67.41
2022-10-05T02:45:22.625Z,72.26
2022-10-05T02:48:24.362Z,75.15
2022-10-05T02:51:35.355Z,73.38
2022-10-05T02:55:00.772Z,69.90
2022-10-05T02:58:02.554Z,69.95
2022-10-05T03:01:15.693Z,74.80
2022-10-05T03:04:26.996Z,74.41
2022-10-05T03:07:47.689Z,73.24
2022-10-05T03:11:24.799Z,71.01
2022-10-05T03:14:27.221Z,75.19
2022-10-05T03:17:30.962Z,76.30
2022-10-05T03:20:51.932Z,74.15
2022-10-05T03:23:53.675Z,72.21
2022-10-05T03:27:04.816Z,73.67
2022-10-05T03:30:19.922Z,75.32
2022-10-05T03:33:35.139Z,74.47
2022-10-05T03:36:36.855Z,73.31
2022-10-05T03:39:57.218Z,70.25
2022-10-05T03:43:18.076Z,69.96
2022-10-05T03:46:19.921Z,72.98
2022-10-05T03:49:48.026Z,72.02
2022-10-05T03:53:04.139Z,71.27
2022-10-05T03:56:05.902Z,68.61
2022-10-05T03:59:16.102Z,66.98
2022-10-05T04:02:28.606Z,67.26
2022-10-05T04:05:31.833Z,70.76
2022-10-05T04:08:48.042Z,67.57
2022-10-05T04:11:51.118Z,67.86
2022-10-05T04:14:59.121Z,74.48
2022-10-05T04:18:03.094Z,73.51
2022-10-05T04:21:10.126Z,74.41
2022-10-05T04:24:35.186Z,71.11
2022-10-05T04:27:39.372Z,67.99
2022-10-05T04:30:41.835Z,68.13
2022-10-05T04:33:44.462Z,70.68
2022-10-05T04:36:49.222Z,71.26
2022-10-05T04:40:10.074Z,69.09
2022-10-05T04:43:15.326Z,69.01
2022-10-05T04:46:22.909Z,70.77
2022-10-05T04:49:29.591Z,73.44
2022-10-05T04:52:31.409Z,77.12
2022-10-05T04:55:38.009Z,71.80
2022-10-05T04:58:46.076Z,69.56
2022-10-05T05:01:52.402Z,68.19
2022-10-05T05:04:57.300Z,69.59
2022-10-05T05:08:02.489Z,74.37
2022-10-05T05:11:23.743Z,71.39
2022-10-05T05:14:44.979Z,69.21
2022-10-05T05:18:05.287Z,68.87
2022-10-05T05:21:10.161Z,73.57
2022-10-05T05:24:30.690Z,72.97
2022-10-05T05:27:40.587Z,70.52
2022-10-05T05:31:04.652Z,71.39
2022-10-05T05:34:19.744Z,68.23
2022-10-05T05:37:34.012Z,68.90
2022-10-05T05:40:48.202Z,66.19
2022-10-05T05:43:50.295Z,66.53
2022-10-05T05:47:09.624Z,60.72
2022-10-05T05:50:32.284Z,56.57
2022-10-05T05:53:37.548Z,54.13
2022-10-05T05:56:40.436Z,54.37
2022-10-05T06:00:03.727Z,51.69
2022-10-05T06:03:08.692Z,52.63
2022-10-05T06:06:11.690Z,53.81
2022-10-05T06:09:18.934Z,54.78
2022-10-05T06:12:40.717Z,54.47
2022-10-05T06:15:45.100Z,53.35
2022-10-05T06:18:48.927Z,52.87
2022-10-05T06:22:17.241Z,54.11
2022-10-05T06:25:24.701Z,53.67
2022-10-05T06:28:27.566Z,53.38
2022-10-05T06:31:34.222Z,56.39
2022-10-05T06:34:51.413Z,52.25
2022-10-05T06:38:12.080Z,53.08
2022-10-05T06:41:23.295Z,50.89
2022-10-05T06:44:30.779Z,51.29
2022-10-05T06:47:47.429Z,50.68
2022-10-05T06:50:58.095Z,46.89
2022-10-05T06:54:18.921Z,48.77
2022-10-05T06:57:30.827Z,44.13
2022-10-05T07:00:41.060Z,43.81
2022-10-05T07:03:50.009Z,40.62
2022-10-05T07:06:53.302Z,41.63
2022-10-05T07:09:58.196Z,44.12
2022-10-05T07:13:09.413Z,43.16
2022-10-05T07:16:11.327Z,44.30
2022-10-05T07:19:21.381Z,39.66
2022-10-05T07:22:29.359Z,44.38
2022-10-05T07:25:38.782Z,45.85
2022-10-05T07:28:46.973Z,49.84
2022-10-05T07:31:52.024Z,46.36
2022-10-05T07:34:58.320Z,47.15
2022-10-05T07:38:01.240Z,48.07
2022-10-05T07:41:06.526Z,48.72
2022-10-05T07:44:13.029Z,50.31
2022-10-05T07:47:27.457Z,54.52
2022-10-05T07:50:38.446Z,55.17
2022-10-05T07:53:41.103Z,55.41
2022-10-05T07:56:44.382Z,54.37
2022-10-05T07:59:58.779Z,55.00
2022-10-05T08:03:11.832Z,54.86
2022-10-05T08:06:34.791Z,54.82
2022-10-05T08:09:41.525Z,50.59
2022-10-05T08:13:02.499Z,54.82
2022-10-05T08:16:06.124Z,55.86
2022-10-05T08:19:23.559Z,54.69
2022-10-05T08:22:28.261Z,54.69
2022-10-05T08:25:48.914Z,54.43
2022-10-05T08:28:59.882Z,55.30
2022-10-05T08:32:02.702Z,54.73
2022-10-05T08:35:13.963Z,51.10
2022-10-05T08:38:20.261Z,52.54
2022-10-05T08:41:40.907Z,50.79
2022-10-05T08:44:55.301Z,50.33
2022-10-05T08:48:03.932Z,49.56
2022-10-05T08:51:14.127Z,50.68
2022-10-05T08:54:19.050Z,46.78
2022-10-05T08:57:33.385Z,48.34
2022-10-05T09:00:47.277Z,48.51
2022-10-05T09:04:07.690Z,50.41
2022-10-05T09:07:27.170Z,50.80
2022-10-05T09:10:44.440Z,47.28
2022-10-05T09:13:46.341Z,44.72
2022-10-05T09:16:50.510Z,46.71
2022-10-05T09:20:00.471Z,47.39
2022-10-05T09:23:13.806Z,46.89
2022-10-05T09:26:31.001Z,46.54
2022-10-05T09:29:32.854Z,48.30
2022-10-05T09:32:40.080Z,48.52
2022-10-05T09:35:58.314Z,46.80
2022-10-05T09:39:09.291Z,42.57
2022-10-05T09:42:13.685Z,40.39
2022-10-05T09:45:49.079Z,39.29
2022-10-05T09:48:51.604Z,37.53
2022-10-05T09:51:58.781Z,33.85
2022-10-05T09:55:07.949Z,32.52
2022-10-05T09:58:30.509Z,36.41
2022-10-05T10:01:57.480Z,32.08
2022-10-05T10:05:08.009Z,36.35
2022-10-05T10:08:22.426Z,36.65
2022-10-05T10:11:33.593Z,34.21
2022-10-05T10:15:07.892Z,29.68
2022-10-05T10:18:21.971Z,32.32
2022-10-05T10:21:23.835Z,30.89
2022-10-05T10:24:26.163Z,34.19
2022-10-05T10:27:51.594Z,31.15
2022-10-05T10:30:54.303Z,33.94
2022-10-05T10:34:02.520Z,31.78
2022-10-05T10:37:07.014Z,32.70
2022-10-05T10:40:15.027Z,33.44
2022-10-05T10:43:35.212Z,39.45
2022-10-05T10:46:40.309Z,37.13
2022-10-05T10:50:00.895Z,42.10
2022-10-05T10:53:21.469Z,40.00
2022-10-05T10:56:27.266Z,44.19
2022-10-05T10:59:32.450Z,42.29
2022-10-05T11:02:53.339Z,41.15
2022-10-05T11:06:04.439Z,42.04
2022-10-05T11:09:25.085Z,42.50
2022-10-05T11:12:52.906Z,43.17
2022-10-05T11:16:11.596Z,43.80
2022-10-05T11:19:40.561Z,45.44
2022-10-05T11:22:56.522Z,45.32
2022-10-05T11:26:04.590Z,44.82
2022-10-05T11:29:18.820Z,44.62
2022-10-05T11:32:36.395Z,43.18
2022-10-05T11:35:57.967Z,44.36
2022-10-05T11:39:07.249Z,44.44
2022-10-05T11:42:12.121Z,46.62
2022-10-05T11:45:22.886Z,48.26
2022-10-05T11:48:24.781Z,48.77
2022-10-05T11:51:34.855Z,47.53
2022-10-05T11:55:10.250Z,48.46
2022-10-05T11:58:17.394Z,46.74
2022-10-05T12:01:27.218Z,46.56
2022-10-05T12:04:29.446Z,47.38
2022-10-05T12:07:36.979Z,47.65
2022-10-05T12:10:49.611Z,45.92
2022-10-05T12:13:51.790Z,47.44
2022-10-05T12:16:53.549Z,45.64
2022-10-05T12:19:59.034Z,47.19
2022-10-05T12:23:13.157Z,46.12
2022-10-05T12:26:15.150Z,44.05
2022-10-05T12:29:35.600Z,46.64
2022-10-05T12:32:40.509Z,43.24
2022-10-05T12:35:49.514Z,43.67
2022-10-05T12:38:57.845Z,43.52
2022-10-05T12:42:05.583Z,44.51
2022-10-05T12:45:10.430Z,46.10
2022-10-05T12:48:29.893Z,46.24
2022-10-05T12:51:32.131Z,43.49
2022-10-05T12:54:37.889Z,43.62
2022-10-05T12:57:53.135Z,42.41
2022-10-05T13:00:57.398Z,42.57
2022-10-05T13:04:03.895Z,43.92
2022-10-05T13:07:15.798Z,42.30
2022-10-05T13:10:20.592Z,43.82
2022-10-05T13:13:37.860Z,42.62
2022-10-05T13:16:45.851Z,41.94
2022-10-05T13:19:48.241Z,40.75
2022-10-05T13:22:59.086Z,40.84
2022-10-05T13:26:07.830Z,35.89
2022-10-05T13:29:15.990Z,33.22
2022-10-05T13:32:22.434Z,34.93
2022-10-05T13:35:24.340Z,32.87
2022-10-05T13:38:36.378Z,32.53
2022-10-05T13:41:48.362Z,33.91
2022-10-05T13:44:51.309Z,33.70
2022-10-05T13:47:56.094Z,37.44
2022-10-05T13:51:18.149Z,38.95
2022-10-05T13:54:38.967Z,40.00
2022-10-05T13:58:07.348Z,40.47
2022-10-05T14:01:14.432Z,41.57
2022-10-05T14:04:21.168Z,40.51
2022-10-05T14:07:25.234Z,39.76
2022-10-05T14:10:40.519Z,40.44
2022-10-05T14:13:46.835Z,40.71
2022-10-05T14:16:53.403Z,39.39
2022-10-05T14:19:57.606Z,40.29
2022-10-05T14:23:00.771Z,40.27
2022-10-05T14:26:04.496Z,40.17
2022-10-05T14:29:16.814Z,41.84
2022-10-05T14:32:22.177Z,43.43
2022-10-05T14:35:25.658Z,42.84
2022-10-05T14:38:32.018Z,42.13
2022-10-05T14:41:37.590Z,41.72
2022-10-05T14:44:39.960Z,40.22
2022-10-05T14:48:08.592Z,41.04
2022-10-05T14:51:11.208Z,40.71
2022-10-05T14:54:24.030Z,41.33
2022-10-05T14:57:35.561Z,42.20
2022-10-05T15:00:40.183Z,40.78
2022-10-05T15:03:54.346Z,41.55
2022-10-05T15:07:04.175Z,41.61
2022-10-05T15:10:26.957Z,40.88
2022-10-05T15:13:30.862Z,41.84
2022-10-05T15:16:33.704Z,41.29
2022-10-05T15:19:45.044Z,42.65
2022-10-05T15:23:00.833Z,43.76
2022-10-05T15:26:21.366Z,43.84
2022-10-05T15:29:42.399Z,41.57
2022-10-05T15:32:47.201Z,40.68
2022-10-05T15:36:09.883Z,41.78
2022-10-05T15:39:12.410Z,42.64
2022-10-05T15:42:15.598Z,42.24
2022-10-05T15:45:32.594Z,41.37
2022-10-05T15:48:35.973Z,41.77
2022-10-05T15:51:51.503Z,42.03
2022-10-05T15:55:12.258Z,43.92
2022-10-05T15:58:23.496Z,43.42
2022-10-05T16:01:29.292Z,44.29
2022-10-05T16:04:36.732Z,41.97
2022-10-05T16:07:58.294Z,42.32
2022-10-05T16:11:00.270Z,42.41
2022-10-05T16:14:06.237Z,43.17
2022-10-05T16:17:26.285Z,43.60
2022-10-05T16:20:31.151Z,43.74
2022-10-05T16:23:32.912Z,44.23
2022-10-05T16:26:53.675Z,44.46
2022-10-05T16:29:57.894Z,44.89
2022-10-05T16:33:14.351Z,45.25
2022-10-05T16:36:16.254Z,45.64
2022-10-05T16:39:18.015Z,45.65
2022-10-05T16:42:22.910Z,45.73
2022-10-05T16:45:30.972Z,46.11
2022-10-05T16:48:38.718Z,46.20
2022-10-05T16:51:40.666Z,47.45
2022-10-05T16:54:47.712Z,46.22
2022-10-05T16:57:55.526Z,46.28
2022-10-05T17:00:58.021Z,46.27
2022-10-05T17:04:18.623Z,48.67
2022-10-05T17:07:26.502Z,47.13
2022-10-05T17:10:37.411Z,46.21
2022-10-05T17:13:51.425Z,46.17
2022-10-05T17:16:56.240Z,46.23
2022-10-05T17:20:17.487Z,46.26
2022-10-05T17:23:48.704Z,46.16
2022-10-05T17:26:53.525Z,46.88
2022-10-05T17:29:56.266Z,46.46
2022-10-05T17:33:04.706Z,46.20
2022-10-05T17:36:12.955Z,47.14
2022-10-05T17:39:14.851Z,47.69
2022-10-05T17:42:42.629Z,47.45
2022-10-05T17:45:44.405Z,47.08
2022-10-05T17:48:49.283Z,49.96
2022-10-05T17:52:09.798Z,48.16
2022-10-05T17:55:25.748Z,47.93
2022-10-05T17:58:28.349Z,51.04
2022-10-05T18:01:34.492Z,49.65
2022-10-05T18:04:39.983Z,48.14
2022-10-05T18:07:42.608Z,47.31
2022-10-05T18:11:03.276Z,48.80
2022-10-05T18:14:16.026Z,46.63
2022-10-05T18:17:34.601Z,47.24
2022-10-05T18:20:37.441Z,47.62
2022-10-05T18:23:41.348Z,48.67
2022-10-05T18:26:52.517Z,50.50
2022-10-05T18:30:05.699Z,49.06
2022-10-05T18:33:11.616Z,47.63
2022-10-05T18:36:17.091Z,47.57
2022-10-05T18:39:18.887Z,47.61
2022-10-05T18:42:23.085Z,48.60
2022-10-05T18:45:27.979Z,47.47
2022-10-05T18:48:36.459Z,48.37
2022-10-05T18:51:48.322Z,49.31
2022-10-05T18:54:54.822Z,49.63
2022-10-05T18:58:05.789Z,51.95
2022-10-05T19:01:10.749Z,52.18
2022-10-05T19:04:12.722Z,52.41
2022-10-05T19:07:14.523Z,50.78
2022-10-05T19:10:23.053Z,49.24
2022-10-05T19:13:30.988Z,51.44
2022-10-05T19:16:35.861Z,51.15
2022-10-05T19:19:37.935Z,51.07
2022-10-05T19:22:55.872Z,53.37
2022-10-05T19:25:59.842Z,50.57
2022-10-05T19:29:05.403Z,50.20
2022-10-05T19:32:16.662Z,48.91
2022-10-05T19:35:45.011Z,52.27
2022-10-05T19:38:55.559Z,53.99
2022-10-05T19:42:04.437Z,52.46
2022-10-05T19:45:09.364Z,50.13
2022-10-05T19:48:21.174Z,51.24
2022-10-05T19:51:35.546Z,52.89
2022-10-05T19:54:37.362Z,51.38
2022-10-05T19:57:49.078Z,51.58
2022-10-05T20:00:56.991Z,54.12
2022-10-05T20:03:58.797Z,54.27
2022-10-05T20:07:02.468Z,52.66
2022-10-05T20:10:24.839Z,51.40
2022-10-05T20:13:27.775Z,54.00
2022-10-05T20:16:49.392Z,56.16
2022-10-05T20:20:09.684Z,55.07
2022-10-05T20:23:23.569Z,54.44
2022-10-05T20:26:57.558Z,54.05
2022-10-05T20:29:59.357Z,53.61
2022-10-05T20:33:01.660Z,54.63
2022-10-05T20:36:04.285Z,55.98
2022-10-05T20:39:06.130Z,54.09
2022-10-05T20:42:08.492Z,54.30
2022-10-05T20:45:11.058Z,57.38
2022-10-05T20:48:13.690Z,58.19
2022-10-05T20:51:16.946Z,58.99
2022-10-05T20:54:19.052Z,58.48
2022-10-05T20:57:24.340Z,60.13
2022-10-05T21:00:27.426Z,60.55
2022-10-05T21:03:30.801Z,62.19
2022-10-05T21:06:33.254Z,61.71
2022-10-05T21:09:37.943Z,60.23
2022-10-05T21:12:39.860Z,62.22
2022-10-05T21:15:41.815Z,62.77
2022-10-05T21:18:47.204Z,63.45
2022-10-05T21:21:49.229Z,63.13
2022-10-05T21:24:51.107Z,62.48
2022-10-05T21:27:54.161Z,61.60
2022-10-05T21:30:56.225Z,61.39
2022-10-05T21:33:58.055Z,60.76
2022-10-05T21:36:59.906Z,61.49
2022-10-05T21:40:01.772Z,61.73
2022-10-05T21:43:03.701Z,61.32
2022-10-05T21:46:05.885Z,59.52
2022-10-05T21:49:08.011Z,60.73
2022-10-05T21:52:09.918Z,59.32
2022-10-05T21:55:11.753Z,60.53
2022-10-05T21:58:13.590Z,59.44
2022-10-05T22:01:20.179Z,59.43
2022-10-05T22:04:24.133Z,59.26
2022-10-05T22:07:26.003Z,60.38
2022-10-05T22:10:28.969Z,61.62
2022-10-05T22:13:31.861Z,61.09
2022-10-05T22:16:34.965Z,63.24
2022-10-05T22:19:36.930Z,60.26
2022-10-05T22:22:38.908Z,63.50
2022-10-05T22:25:43.462Z,63.16
2022-10-05T22:28:46.870Z,63.29
2022-10-05T22:31:49.069Z,66.04
2022-10-05T22:34:51.137Z,66.75
2022-10-05T22:37:52.944Z,64.62
2022-10-05T22:40:54.768Z,65.00
2022-10-05T22:43:56.571Z,64.01
2022-10-05T22:46:58.379Z,62.20
2022-10-05T22:50:00.506Z,59.65
2022-10-05T22:53:02.389Z,58.36
2022-10-05T22:56:05.138Z,62.42
2022-10-05T22:59:07.081Z,62.62
2022-10-05T23:02:09.046Z,63.47
2022-10-05T23:05:13.358Z,62.19
2022-10-05T23:08:16.751Z,61.59
2022-10-05T23:11:26.030Z,59.04
2022-10-05T23:14:30.746Z,60.93
2022-10-05T23:17:34.763Z,58.53
2022-10-05T23:20:37.107Z,59.27
2022-10-05T23:23:39.536Z,58.53
2022-10-05T23:26:41.370Z,58.52
2022-10-05T23:29:43.302Z,58.73
2022-10-05T23:32:45.192Z,57.04
2022-10-05T23:35:47.016Z,58.47
2022-10-05T23:38:49.114Z,55.54
2022-10-05T23:41:50.922Z,54.84
2022-10-05T23:44:52.780Z,54.15
2022-10-05T23:47:54.615Z,53.86
2022-10-05T23:50:56.759Z,54.07
2022-10-05T23:53:58.534Z,54.43
2022-10-05T23:57:00.406Z,54.49
